Time;durP1;ratioP1;P1;durP2;ratioP2;P2;SDS_P1;SDS_P2;PMS_P1;PMS_P2;Temp;Humidity;BMP_temperature;BMP_pressure;BME280_temperature;BME280_humidity;BME280_pressure;Samples;Min_cycle;Max_cycle;Signal;HPM_P1;HPM_P2
2022/12/18 00:00:41;;;;;;;;;;;-3.20;99.90;;;;;;5018211;28;207636;-67
2022/12/18 00:03:07;;;;;;;;;;;-3.20;99.90;;;;;;5053679;28;19924;-68
2022/12/18 00:05:33;;;;;;;;;;;-3.20;99.90;;;;;;5034309;28;173213;-68
2022/12/18 00:07:59;;;;;;;;;;;-3.20;99.90;;;;;;5078576;28;20452;-67
2022/12/18 00:10:26;;;;;;;;;;;-3.20;99.90;;;;;;5012250;28;186712;-68
2022/12/18 00:12:52;;;;;;;;;;;-3.20;99.90;;;;;;5048354;28;20325;-67
2022/12/18 00:15:19;;;;;;;;;;;-3.20;99.90;;;;;;5023951;28;207897;-67
2022/12/18 00:17:44;;;;;;;;;;;-3.20;99.90;;;;;;5090231;27;19928;-68
2022/12/18 00:20:10;;;;;;;;;;;-3.10;99.90;;;;;;5044436;28;210592;-66
2022/12/18 00:22:36;;;;;;;;;;;-3.20;99.90;;;;;;5034694;28;20019;-68
2022/12/18 00:25:02;;;;;;;;;;;-3.20;99.90;;;;;;5018546;28;207868;-67
2022/12/18 00:27:28;;;;;;;;;;;-3.20;99.90;;;;;;5066017;28;19936;-68
2022/12/18 00:29:54;;;;;;;;;;;-3.20;99.90;;;;;;5050012;28;207410;-68
2022/12/18 00:32:20;;;;;;;;;;;-3.20;99.90;;;;;;5019189;28;202897;-68
2022/12/18 00:34:46;;;;;;;;;;;-3.20;99.90;;;;;;5067434;28;19936;-68
2022/12/18 00:37:12;;;;;;;;;;;-3.20;99.90;;;;;;5014596;28;210467;-67
2022/12/18 00:39:38;;;;;;;;;;;-3.20;99.90;;;;;;5063788;28;20321;-66
2022/12/18 00:44:48;;;;;;;;;;;-3.30;99.90;;;;;;5066075;28;19921;-68
2022/12/18 00:47:14;;;;;;;;;;;-3.30;99.90;;;;;;5011438;28;184783;-67
2022/12/18 00:49:40;;;;;;;;;;;-3.30;99.90;;;;;;5064449;28;19924;-68
2022/12/18 00:52:06;;;;;;;;;;;-3.30;99.90;;;;;;5016983;28;162623;-68
2022/12/18 00:54:32;;;;;;;;;;;-3.40;99.90;;;;;;5065596;28;19940;-68
2022/12/18 00:56:58;;;;;;;;;;;-3.40;99.90;;;;;;5002481;28;191626;-68
2022/12/18 00:59:24;;;;;;;;;;;-3.40;99.90;;;;;;5068277;28;20312;-68
2022/12/18 01:01:50;;;;;;;;;;;-3.40;99.90;;;;;;5004043;28;206948;-68
2022/12/18 01:04:16;;;;;;;;;;;-3.50;99.90;;;;;;5063422;28;19974;-68
2022/12/18 01:06:42;;;;;;;;;;;-3.50;99.90;;;;;;5015579;28;212934;-68
2022/12/18 01:09:08;;;;;;;;;;;-3.60;99.90;;;;;;5057946;28;20008;-68
2022/12/18 01:11:34;;;;;;;;;;;-3.50;99.90;;;;;;5012879;28;207011;-66
2022/12/18 01:14:00;;;;;;;;;;;-3.50;99.90;;;;;;5075430;28;19966;-68
2022/12/18 01:16:26;;;;;;;;;;;-3.50;99.90;;;;;;5018418;28;154810;-68
2022/12/18 01:18:53;;;;;;;;;;;-3.50;99.90;;;;;;5060157;28;19971;-67
2022/12/18 01:21:20;;;;;;;;;;;-3.50;99.90;;;;;;5031282;27;198477;-69
2022/12/18 01:23:46;;;;;;;;;;;-3.50;99.90;;;;;;5066482;28;19931;-68
2022/12/18 01:26:14;;;;;;;;;;;-3.60;99.90;;;;;;5023005;28;206139;-68
2022/12/18 01:28:40;;;;;;;;;;;-3.60;99.90;;;;;;5044963;28;20313;-67
2022/12/18 01:31:10;;;;;;;;;;;-3.60;99.90;;;;;;5013681;28;169821;-68
2022/12/18 01:33:36;;;;;;;;;;;-3.70;99.90;;;;;;5069261;28;19928;-68
2022/12/18 01:36:02;;;;;;;;;;;-3.70;99.90;;;;;;4996819;28;207713;-68
2022/12/18 01:38:28;;;;;;;;;;;-3.70;99.90;;;;;;5044594;28;19928;-68
2022/12/18 01:40:58;;;;;;;;;;;-3.70;99.90;;;;;;5018169;28;152771;-68
2022/12/18 01:43:40;;;;;;;;;;;-3.70;99.90;;;;;;5060916;28;19944;-67
2022/12/18 01:46:06;;;;;;;;;;;-3.70;99.90;;;;;;5003068;28;197379;-68
2022/12/18 01:48:32;;;;;;;;;;;-3.70;99.90;;;;;;5057168;28;20433;-68
2022/12/18 01:50:58;;;;;;;;;;;-3.70;99.90;;;;;;5022713;28;208726;-68
2022/12/18 01:53:24;;;;;;;;;;;-3.70;99.90;;;;;;5050770;28;19925;-67
2022/12/18 01:55:51;;;;;;;;;;;-3.70;99.90;;;;;;5035213;28;206601;-66
2022/12/18 01:58:18;;;;;;;;;;;-3.80;99.90;;;;;;5053745;28;19924;-68
2022/12/18 02:00:44;;;;;;;;;;;-3.80;99.90;;;;;;5023281;28;207074;-68
2022/12/18 02:03:10;;;;;;;;;;;-3.80;99.90;;;;;;5076505;28;19931;-67
2022/12/18 02:05:36;;;;;;;;;;;-3.80;99.90;;;;;;4995549;28;136405;-67
2022/12/18 02:08:08;;;;;;;;;;;-3.80;99.90;;;;;;5068001;28;20386;-68
2022/12/18 02:10:49;;;;;;;;;;;-3.80;99.90;;;;;;5044795;27;186295;-67
2022/12/18 02:13:15;;;;;;;;;;;-3.80;99.90;;;;;;5084322;27;20420;-68
2022/12/18 02:15:45;;;;;;;;;;;-3.80;99.90;;;;;;5036912;27;211707;-67
2022/12/18 02:18:20;;;;;;;;;;;-3.90;99.90;;;;;;5055055;28;19921;-68
2022/12/18 02:20:49;;;;;;;;;;;-3.90;99.90;;;;;;5002539;28;211967;-68
2022/12/18 02:23:34;;;;;;;;;;;-3.80;99.90;;;;;;5069812;28;19920;-68
2022/12/18 02:26:19;;;;;;;;;;;-3.80;99.90;;;;;;5016035;28;176834;-67
2022/12/18 02:28:53;;;;;;;;;;;-3.80;99.90;;;;;;5059992;28;20317;-67
2022/12/18 02:31:22;;;;;;;;;;;-3.80;99.90;;;;;;4994820;28;158817;-67
2022/12/18 02:33:49;;;;;;;;;;;-3.90;99.90;;;;;;5064415;28;19924;-68
2022/12/18 02:36:16;;;;;;;;;;;-3.80;99.90;;;;;;4995523;28;198361;-68
2022/12/18 02:38:42;;;;;;;;;;;-3.90;99.90;;;;;;5042974;28;20321;-68
2022/12/18 02:41:08;;;;;;;;;;;-3.90;99.90;;;;;;5018801;28;207719;-67
2022/12/18 02:43:34;;;;;;;;;;;-3.90;99.90;;;;;;5031198;28;19982;-68
2022/12/18 02:46:01;;;;;;;;;;;-4.00;99.90;;;;;;5000441;28;208636;-67
2022/12/18 02:48:34;;;;;;;;;;;-4.00;99.90;;;;;;5046752;28;19920;-67
2022/12/18 02:51:11;;;;;;;;;;;-4.00;99.90;;;;;;5016860;28;208004;-67
2022/12/18 02:53:39;;;;;;;;;;;-4.10;99.90;;;;;;5077526;28;19928;-67
2022/12/18 02:56:05;;;;;;;;;;;-4.10;99.90;;;;;;5018249;28;207854;-67
2022/12/18 02:58:48;;;;;;;;;;;-4.10;99.90;;;;;;5061446;28;20305;-66
2022/12/18 03:01:33;;;;;;;;;;;-4.10;99.90;;;;;;5030049;27;190897;-67
2022/12/18 03:04:26;;;;;;;;;;;-4.20;99.90;;;;;;5085673;28;19924;-67
2022/12/18 03:06:54;;;;;;;;;;;-4.30;99.90;;;;;;5011968;28;157240;-67
2022/12/18 03:09:32;;;;;;;;;;;-4.30;99.90;;;;;;5070005;28;19928;-67
2022/12/18 03:14:49;;;;;;;;;;;-4.30;99.90;;;;;;5095004;28;20170;-67
2022/12/18 03:17:16;;;;;;;;;;;-4.40;99.90;;;;;;5024077;28;207636;-67
2022/12/18 03:19:43;;;;;;;;;;;-4.40;99.90;;;;;;5067714;28;20412;-67
2022/12/18 03:22:10;;;;;;;;;;;-4.40;99.90;;;;;;4998094;28;208272;-67
2022/12/18 03:24:38;;;;;;;;;;;-4.50;99.90;;;;;;5066519;28;20023;-67
2022/12/18 03:27:06;;;;;;;;;;;-4.50;99.90;;;;;;5000240;28;197810;-66
2022/12/18 03:29:35;;;;;;;;;;;-4.50;99.90;;;;;;5063938;28;19931;-67
2022/12/18 03:32:19;;;;;;;;;;;-4.60;99.90;;;;;;5013146;28;207023;-67
2022/12/18 03:34:46;;;;;;;;;;;-4.60;99.90;;;;;;5065359;28;19995;-67
2022/12/18 03:37:12;;;;;;;;;;;-4.60;99.90;;;;;;5000079;28;212031;-67
2022/12/18 03:39:38;;;;;;;;;;;-4.70;99.90;;;;;;5067131;28;19924;-67
2022/12/18 03:42:16;;;;;;;;;;;-4.70;99.90;;;;;;5037308;28;108210;-67
2022/12/18 03:44:52;;;;;;;;;;;-4.70;99.90;;;;;;5064332;28;20320;-67
2022/12/18 03:47:33;;;;;;;;;;;-4.80;99.90;;;;;;5021846;28;193302;-67
2022/12/18 03:50:14;;;;;;;;;;;-4.80;99.90;;;;;;5061526;28;208235;-67
2022/12/18 03:52:56;;;;;;;;;;;-4.80;99.90;;;;;;5029602;28;19928;-67
2022/12/18 03:55:22;;;;;;;;;;;-4.80;99.90;;;;;;5016732;28;188900;-68
2022/12/18 03:57:49;;;;;;;;;;;-4.80;99.90;;;;;;5064364;28;20397;-67
2022/12/18 04:00:17;;;;;;;;;;;-4.80;99.90;;;;;;5016539;28;212031;-67
2022/12/18 04:02:45;;;;;;;;;;;-4.80;99.90;;;;;;5050790;28;19955;-67
2022/12/18 04:05:12;;;;;;;;;;;-4.90;99.90;;;;;;5007863;28;213560;-67
2022/12/18 04:07:39;;;;;;;;;;;-4.90;99.90;;;;;;5061638;28;19927;-68
2022/12/18 04:10:06;;;;;;;;;;;-4.90;99.90;;;;;;5010559;28;210570;-68
2022/12/18 04:12:32;;;;;;;;;;;-5.00;99.90;;;;;;5011683;28;19931;-67
2022/12/18 04:14:58;;;;;;;;;;;-5.00;99.90;;;;;;5045399;28;207578;-66
2022/12/18 04:17:24;;;;;;;;;;;-5.00;99.90;;;;;;5022034;28;19932;-66
2022/12/18 04:19:50;;;;;;;;;;;-5.00;99.90;;;;;;5068660;28;19924;-67
2022/12/18 04:22:16;;;;;;;;;;;-5.00;99.90;;;;;;5028910;28;272558;-67
2022/12/18 04:24:42;;;;;;;;;;;-5.10;99.90;;;;;;5062816;28;19928;-67
2022/12/18 04:27:08;;;;;;;;;;;-5.10;99.90;;;;;;5011781;28;206834;-67
2022/12/18 04:29:34;;;;;;;;;;;-5.10;99.90;;;;;;5064304;28;19920;-67
2022/12/18 04:32:00;;;;;;;;;;;-5.10;99.90;;;;;;4986190;28;206922;-67
2022/12/18 04:34:26;;;;;;;;;;;-5.10;99.90;;;;;;5061547;28;19925;-67
2022/12/18 04:36:52;;;;;;;;;;;-5.20;99.90;;;;;;5003163;28;167021;-67
2022/12/18 04:39:18;;;;;;;;;;;-5.20;99.90;;;;;;5091619;28;20046;-66
2022/12/18 04:41:44;;;;;;;;;;;-5.20;99.90;;;;;;5014645;28;208361;-67
2022/12/18 04:44:10;;;;;;;;;;;-5.20;99.90;;;;;;5073853;28;19920;-67
2022/12/18 04:46:36;;;;;;;;;;;-5.20;99.90;;;;;;5007313;28;208074;-67
2022/12/18 04:49:02;;;;;;;;;;;-5.20;99.90;;;;;;5043941;28;19998;-67
2022/12/18 04:51:28;;;;;;;;;;;-5.30;99.90;;;;;;5006490;28;202262;-68
2022/12/18 04:53:54;;;;;;;;;;;-5.20;99.90;;;;;;5061047;28;20408;-67
2022/12/18 04:56:20;;;;;;;;;;;-5.30;99.90;;;;;;5006842;28;168069;-67
2022/12/18 04:58:46;;;;;;;;;;;-5.30;99.90;;;;;;5039052;28;19931;-67
2022/12/18 05:01:12;;;;;;;;;;;-5.30;99.90;;;;;;5021852;28;138923;-67
2022/12/18 05:03:38;;;;;;;;;;;-5.40;99.90;;;;;;5062996;28;19927;-68
2022/12/18 05:06:05;;;;;;;;;;;-5.30;99.90;;;;;;5009618;28;211515;-67
2022/12/18 05:08:31;;;;;;;;;;;-5.40;99.90;;;;;;5060958;28;19921;-68
2022/12/18 05:10:58;;;;;;;;;;;-5.40;99.90;;;;;;5012159;28;206117;-66
2022/12/18 05:13:24;;;;;;;;;;;-5.40;99.90;;;;;;5055533;28;19931;-67
2022/12/18 05:15:53;;;;;;;;;;;-5.40;99.90;;;;;;5015313;28;207730;-68
2022/12/18 05:18:19;;;;;;;;;;;-5.40;99.90;;;;;;5064334;28;20458;-67
2022/12/18 05:20:45;;;;;;;;;;;-5.40;99.90;;;;;;5036699;28;146791;-67
2022/12/18 05:23:11;;;;;;;;;;;-5.40;99.90;;;;;;5042678;28;19929;-67
2022/12/18 05:25:37;;;;;;;;;;;-5.40;99.90;;;;;;4993934;28;196719;-67
2022/12/18 05:28:03;;;;;;;;;;;-5.40;99.90;;;;;;5032098;28;19924;-68
2022/12/18 05:30:29;;;;;;;;;;;-5.40;99.90;;;;;;5032942;28;211430;-67
2022/12/18 05:32:55;;;;;;;;;;;-5.40;99.90;;;;;;5034840;28;19979;-67
2022/12/18 05:35:21;;;;;;;;;;;-5.40;99.90;;;;;;5007639;28;192413;-67
2022/12/18 05:37:47;;;;;;;;;;;-5.50;99.90;;;;;;5034034;28;19920;-67
2022/12/18 05:40:13;;;;;;;;;;;-5.40;99.90;;;;;;5019033;28;215688;-67
2022/12/18 05:42:39;;;;;;;;;;;-5.50;99.90;;;;;;5048159;28;19931;-67
2022/12/18 05:45:06;;;;;;;;;;;-5.50;99.90;;;;;;5049973;27;209555;-68
2022/12/18 05:47:32;;;;;;;;;;;-5.50;99.90;;;;;;5082018;28;19928;-68
2022/12/18 05:49:58;;;;;;;;;;;-5.60;99.90;;;;;;5045174;28;208311;-68
2022/12/18 05:52:24;;;;;;;;;;;-5.60;99.90;;;;;;5024207;28;19925;-67
2022/12/18 05:54:50;;;;;;;;;;;-5.60;99.90;;;;;;5069497;28;19924;-67
2022/12/18 05:57:16;;;;;;;;;;;-5.60;99.90;;;;;;5008795;28;210907;-68
2022/12/18 05:59:42;;;;;;;;;;;-5.70;99.90;;;;;;5104511;27;19950;-68
2022/12/18 06:02:08;;;;;;;;;;;-5.60;99.90;;;;;;5016479;28;215815;-67
2022/12/18 06:04:34;;;;;;;;;;;-5.60;99.90;;;;;;5099921;27;19927;-68
2022/12/18 06:07:00;;;;;;;;;;;-5.60;99.90;;;;;;4983597;28;206583;-67
2022/12/18 06:09:26;;;;;;;;;;;-5.60;99.90;;;;;;5074668;28;20010;-68
2022/12/18 06:11:52;;;;;;;;;;;-5.60;99.90;;;;;;5008445;28;149252;-67
2022/12/18 06:14:18;;;;;;;;;;;-5.60;99.90;;;;;;5095027;27;19924;-67
2022/12/18 06:16:44;;;;;;;;;;;-5.60;99.90;;;;;;5000720;28;109434;-67
2022/12/18 06:19:13;;;;;;;;;;;-5.60;99.90;;;;;;5054595;28;20371;-67
2022/12/18 06:21:39;;;;;;;;;;;-5.60;99.90;;;;;;5028277;28;213288;-68
2022/12/18 06:24:05;;;;;;;;;;;-5.70;99.90;;;;;;5065486;28;20381;-68
2022/12/18 06:26:31;;;;;;;;;;;-5.70;99.90;;;;;;4984874;28;185541;-67
2022/12/18 06:28:57;;;;;;;;;;;-5.80;99.90;;;;;;5055752;28;19928;-67
2022/12/18 06:31:23;;;;;;;;;;;-5.80;99.90;;;;;;5007747;28;201751;-66
2022/12/18 06:33:49;;;;;;;;;;;-5.80;99.90;;;;;;5059947;28;19928;-67
2022/12/18 06:36:16;;;;;;;;;;;-5.90;99.90;;;;;;4982924;28;159978;-67
2022/12/18 06:38:43;;;;;;;;;;;-5.90;99.90;;;;;;5056278;28;20401;-67
2022/12/18 06:41:10;;;;;;;;;;;-5.90;99.90;;;;;;4980438;28;156540;-67
2022/12/18 06:43:36;;;;;;;;;;;-5.90;99.90;;;;;;5052719;28;19939;-67
2022/12/18 06:46:02;;;;;;;;;;;-5.90;99.90;;;;;;5009524;28;187166;-68
2022/12/18 06:48:28;;;;;;;;;;;-6.00;99.90;;;;;;5058383;28;19928;-67
2022/12/18 06:50:55;;;;;;;;;;;-5.90;99.90;;;;;;5009539;28;204569;-67
2022/12/18 06:53:21;;;;;;;;;;;-6.00;99.90;;;;;;5056460;28;19932;-67
2022/12/18 06:55:47;;;;;;;;;;;-6.00;99.90;;;;;;5012810;28;176614;-67
2022/12/18 06:58:13;;;;;;;;;;;-6.00;99.90;;;;;;5060115;28;20531;-67
2022/12/18 07:00:39;;;;;;;;;;;-6.00;99.90;;;;;;5021247;28;132275;-67
2022/12/18 07:03:04;;;;;;;;;;;-6.00;99.90;;;;;;5079198;28;19925;-66
2022/12/18 07:05:30;;;;;;;;;;;-6.00;99.90;;;;;;5004690;28;207664;-67
2022/12/18 07:07:57;;;;;;;;;;;-6.00;99.90;;;;;;5060663;28;19924;-66
2022/12/18 07:10:23;;;;;;;;;;;-6.00;99.90;;;;;;5015905;28;208297;-66
2022/12/18 07:12:49;;;;;;;;;;;-6.00;99.90;;;;;;5049236;28;20352;-67
2022/12/18 07:15:15;;;;;;;;;;;-6.10;99.90;;;;;;5023240;28;217776;-67
2022/12/18 07:17:40;;;;;;;;;;;-6.10;99.90;;;;;;5085775;28;20340;-68
2022/12/18 07:20:07;;;;;;;;;;;-6.10;99.90;;;;;;4997018;28;210344;-67
2022/12/18 07:22:33;;;;;;;;;;;-6.10;99.90;;;;;;5058601;28;19933;-67
2022/12/18 07:24:59;;;;;;;;;;;-6.10;99.90;;;;;;5034053;28;218212;-66
2022/12/18 07:27:24;;;;;;;;;;;-6.10;99.90;;;;;;5047195;28;19925;-67
2022/12/18 07:29:50;;;;;;;;;;;-6.20;99.90;;;;;;5064367;28;20466;-67
2022/12/18 07:32:16;;;;;;;;;;;-6.10;99.90;;;;;;4988710;28;262313;-68
2022/12/18 07:34:42;;;;;;;;;;;-6.10;99.90;;;;;;5072071;28;20559;-67
2022/12/18 07:37:08;;;;;;;;;;;-6.10;99.90;;;;;;4976252;28;211602;-66
2022/12/18 07:39:34;;;;;;;;;;;-6.10;99.90;;;;;;5065901;28;20386;-67
2022/12/18 07:44:45;;;;;;;;;;;-6.10;99.90;;;;;;5067963;28;19920;-67
2022/12/18 07:47:10;;;;;;;;;;;-6.00;99.90;;;;;;4981488;28;179364;-67
2022/12/18 07:49:36;;;;;;;;;;;-6.00;99.90;;;;;;5064622;28;20393;-66
2022/12/18 07:52:02;;;;;;;;;;;-6.00;99.90;;;;;;5009632;28;208903;-66
2022/12/18 07:54:29;;;;;;;;;;;-6.00;99.90;;;;;;5067591;28;19927;-66
2022/12/18 07:56:55;;;;;;;;;;;-5.90;99.90;;;;;;5005382;28;154842;-66
2022/12/18 07:59:21;;;;;;;;;;;-5.90;99.90;;;;;;5063057;28;20378;-67
2022/12/18 08:01:47;;;;;;;;;;;-5.90;99.90;;;;;;5017537;28;188021;-67
2022/12/18 08:04:13;;;;;;;;;;;-5.90;99.90;;;;;;5048726;28;20031;-67
2022/12/18 08:06:39;;;;;;;;;;;-5.90;99.90;;;;;;5011445;28;206666;-68
2022/12/18 08:09:05;;;;;;;;;;;-5.80;99.90;;;;;;5044608;28;19929;-68
2022/12/18 08:11:31;;;;;;;;;;;-5.80;99.90;;;;;;5029442;28;170840;-68
2022/12/18 08:13:57;;;;;;;;;;;-5.70;99.90;;;;;;5059456;28;19924;-67
2022/12/18 08:16:23;;;;;;;;;;;-5.70;99.90;;;;;;5017149;28;159325;-68
2022/12/18 08:18:51;;;;;;;;;;;-5.70;99.90;;;;;;5064844;28;20305;-68
2022/12/18 08:21:20;;;;;;;;;;;-5.70;99.90;;;;;;5004749;28;152477;-68
2022/12/18 08:23:46;;;;;;;;;;;-5.60;99.90;;;;;;5058010;28;20305;-68
2022/12/18 08:26:12;;;;;;;;;;;-5.60;99.90;;;;;;5021119;28;232556;-67
2022/12/18 08:28:38;;;;;;;;;;;-5.50;99.90;;;;;;5055066;28;19928;-66
2022/12/18 08:31:05;;;;;;;;;;;-5.50;99.90;;;;;;5034610;28;210176;-67
2022/12/18 08:33:31;;;;;;;;;;;-5.40;99.90;;;;;;5073739;28;20026;-68
2022/12/18 08:35:58;;;;;;;;;;;-5.40;99.90;;;;;;5013157;28;204727;-68
2022/12/18 08:38:24;;;;;;;;;;;-5.30;99.90;;;;;;5073151;28;19931;-68
2022/12/18 08:40:57;;;;;;;;;;;-5.20;99.90;;;;;;5019026;28;193641;-69
2022/12/18 08:46:08;;;;;;;;;;;-5.10;99.90;;;;;;5015375;28;218512;-68
2022/12/18 08:48:34;;;;;;;;;;;-5.10;99.90;;;;;;5057432;28;20000;-68
2022/12/18 08:51:00;;;;;;;;;;;-5.00;99.90;;;;;;5021537;28;205051;-68
2022/12/18 08:53:26;;;;;;;;;;;-5.00;99.90;;;;;;5065377;28;19924;-68
2022/12/18 08:55:52;;;;;;;;;;;-4.90;99.90;;;;;;5014621;28;207898;-69
2022/12/18 08:58:19;;;;;;;;;;;-4.90;99.90;;;;;;5041727;28;19928;-68
2022/12/18 09:00:45;;;;;;;;;;;-4.80;99.90;;;;;;5020163;28;186341;-69
2022/12/18 09:03:14;;;;;;;;;;;-4.80;99.90;;;;;;5058071;28;19924;-69
2022/12/18 09:05:40;;;;;;;;;;;-4.80;99.90;;;;;;5035087;27;110322;-69
2022/12/18 09:08:06;;;;;;;;;;;-4.70;99.90;;;;;;5048887;28;19931;-69
2022/12/18 09:10:32;;;;;;;;;;;-4.70;99.90;;;;;;5050348;28;131164;-68
2022/12/18 09:12:58;;;;;;;;;;;-4.60;99.90;;;;;;5060078;28;19942;-66
2022/12/18 09:15:24;;;;;;;;;;;-4.50;99.90;;;;;;5020220;28;209457;-68
2022/12/18 09:17:52;;;;;;;;;;;-4.50;99.90;;;;;;5036367;28;19955;-69
2022/12/18 09:20:18;;;;;;;;;;;-4.40;99.90;;;;;;5044629;28;206693;-69
2022/12/18 09:22:44;;;;;;;;;;;-4.30;99.90;;;;;;5080638;28;19933;-68
2022/12/18 09:25:10;;;;;;;;;;;-4.30;99.90;;;;;;5014980;28;207226;-69
2022/12/18 09:27:36;;;;;;;;;;;-4.20;99.90;;;;;;5049642;28;19921;-69
2022/12/18 09:30:02;;;;;;;;;;;-4.10;99.90;;;;;;5019991;28;213342;-69
2022/12/18 09:32:28;;;;;;;;;;;-4.00;99.90;;;;;;5064434;28;20397;-69
2022/12/18 09:34:54;;;;;;;;;;;-4.00;99.90;;;;;;5052703;27;208038;-69
2022/12/18 09:37:20;;;;;;;;;;;-3.90;99.90;;;;;;5042098;28;209197;-68
2022/12/18 09:39:46;;;;;;;;;;;-3.80;99.90;;;;;;5067780;28;19971;-69
2022/12/18 09:42:22;;;;;;;;;;;-3.70;99.90;;;;;;5027905;28;135455;-69
2022/12/18 09:44:53;;;;;;;;;;;-3.60;99.90;;;;;;5063602;28;19928;-68
2022/12/18 09:47:28;;;;;;;;;;;-3.50;99.90;;;;;;5020979;28;208294;-68
2022/12/18 09:49:56;;;;;;;;;;;-3.40;99.90;;;;;;5030431;28;207538;-70
2022/12/18 09:52:28;;;;;;;;;;;-3.30;99.90;;;;;;5002967;28;35346;-69
2022/12/18 09:55:00;;;;;;;;;;;-3.20;99.90;;;;;;5045560;28;208947;-69
2022/12/18 09:57:26;;;;;;;;;;;-3.20;99.90;;;;;;5010747;28;20385;-70
2022/12/18 09:59:56;;;;;;;;;;;-3.10;99.90;;;;;;5053193;28;207892;-69
2022/12/18 10:02:23;;;;;;;;;;;-3.00;99.90;;;;;;5014789;28;230769;-68
2022/12/18 10:05:01;;;;;;;;;;;-3.00;99.90;;;;;;5049097;28;19925;-69
2022/12/18 10:07:32;;;;;;;;;;;-3.00;99.90;;;;;;4985517;28;206313;-69
2022/12/18 10:10:03;;;;;;;;;;;-3.00;99.90;;;;;;5043910;28;208084;-69
2022/12/18 10:12:32;;;;;;;;;;;-2.90;99.90;;;;;;5057949;28;206963;-69
2022/12/18 10:15:12;;;;;;;;;;;-2.90;99.90;;;;;;5041682;28;213616;-69
2022/12/18 10:17:45;;;;;;;;;;;-2.90;99.90;;;;;;5050656;28;19932;-69
2022/12/18 10:20:15;;;;;;;;;;;-2.90;99.90;;;;;;5016876;28;209393;-68
2022/12/18 10:22:41;;;;;;;;;;;-2.90;99.90;;;;;;5050237;28;19928;-68
2022/12/18 10:25:28;;;;;;;;;;;-2.90;99.90;;;;;;5012339;28;209204;-69
2022/12/18 10:28:00;;;;;;;;;;;-2.90;99.90;;;;;;5043546;28;20324;-69
2022/12/18 10:30:26;;;;;;;;;;;-2.80;99.90;;;;;;5020514;28;214662;-69
2022/12/18 10:32:52;;;;;;;;;;;-2.80;99.90;;;;;;5069441;28;19920;-68
2022/12/18 10:35:20;;;;;;;;;;;-2.70;99.90;;;;;;5006508;28;204532;-69
2022/12/18 10:38:02;;;;;;;;;;;-2.60;99.90;;;;;;5073733;28;19931;-68
2022/12/18 10:40:28;;;;;;;;;;;-2.60;99.90;;;;;;5041192;27;187076;-67
2022/12/18 10:43:13;;;;;;;;;;;-2.50;99.90;;;;;;5075080;28;20308;-68
2022/12/18 10:45:39;;;;;;;;;;;-2.40;99.90;;;;;;5017819;28;197936;-69
2022/12/18 10:48:17;;;;;;;;;;;-2.30;99.90;;;;;;5083057;27;19924;-68
2022/12/18 10:50:46;;;;;;;;;;;-2.30;99.90;;;;;;5017204;28;207731;-68
2022/12/18 10:53:17;;;;;;;;;;;-2.20;99.90;;;;;;5058686;28;19925;-68
2022/12/18 10:55:45;;;;;;;;;;;-2.10;99.90;;;;;;5011199;28;208275;-68
2022/12/18 10:58:23;;;;;;;;;;;-2.10;99.90;;;;;;5071113;28;19920;-68
2022/12/18 11:01:04;;;;;;;;;;;-2.00;99.90;;;;;;5040674;28;196195;-68
2022/12/18 11:03:31;;;;;;;;;;;-1.90;99.90;;;;;;5046349;28;19928;-68
2022/12/18 11:06:04;;;;;;;;;;;-1.90;99.90;;;;;;5000534;28;177255;-69
2022/12/18 11:08:30;;;;;;;;;;;-1.90;99.90;;;;;;5054792;28;19932;-68
2022/12/18 11:10:56;;;;;;;;;;;-1.80;99.90;;;;;;5036352;28;137054;-68
2022/12/18 11:13:24;;;;;;;;;;;-1.80;99.90;;;;;;5077533;28;20297;-70
2022/12/18 11:15:51;;;;;;;;;;;-1.70;99.90;;;;;;4996870;28;126532;-68
2022/12/18 11:18:24;;;;;;;;;;;-1.70;99.90;;;;;;5058561;28;19921;-68
2022/12/18 11:20:51;;;;;;;;;;;-1.70;99.90;;;;;;5028326;28;206614;-67
2022/12/18 11:23:18;;;;;;;;;;;-1.60;99.90;;;;;;5064101;28;20267;-68
2022/12/18 11:25:59;;;;;;;;;;;-1.50;99.90;;;;;;5016624;28;186211;-68
2022/12/18 11:28:43;;;;;;;;;;;-1.50;99.90;;;;;;5058913;28;19947;-68
2022/12/18 11:31:14;;;;;;;;;;;-1.40;99.90;;;;;;5019272;28;176962;-71
2022/12/18 11:33:43;;;;;;;;;;;-1.30;99.90;;;;;;5059110;28;19920;-68
2022/12/18 11:36:10;;;;;;;;;;;-1.30;99.90;;;;;;4988352;28;134285;-69
2022/12/18 11:38:37;;;;;;;;;;;-1.30;99.90;;;;;;5051446;28;19920;-69
2022/12/18 11:41:22;;;;;;;;;;;-1.30;99.90;;;;;;5004651;28;209191;-69
2022/12/18 11:43:54;;;;;;;;;;;-1.20;99.90;;;;;;5050873;28;19932;-70
2022/12/18 11:46:43;;;;;;;;;;;-1.20;99.90;;;;;;5012955;28;217476;-69
2022/12/18 11:49:18;;;;;;;;;;;-1.20;99.90;;;;;;5054073;28;20400;-69
2022/12/18 11:51:48;;;;;;;;;;;-1.10;99.90;;;;;;5030542;28;144167;-71
2022/12/18 11:54:15;;;;;;;;;;;-1.10;99.90;;;;;;5070329;28;20424;-70
2022/12/18 11:56:49;;;;;;;;;;;-1.10;99.90;;;;;;5018986;28;139863;-69
2022/12/18 11:59:33;;;;;;;;;;;-1.10;99.90;;;;;;5061454;28;20011;-69
2022/12/18 12:02:14;;;;;;;;;;;-1.00;99.90;;;;;;4988758;28;140867;-69
2022/12/18 12:04:55;;;;;;;;;;;-1.00;99.90;;;;;;5060268;28;19939;-69
2022/12/18 12:07:27;;;;;;;;;;;-1.00;99.90;;;;;;4975990;28;182886;-69
2022/12/18 12:09:53;;;;;;;;;;;-0.90;99.90;;;;;;5044452;28;210299;-70
2022/12/18 12:12:19;;;;;;;;;;;-0.90;99.90;;;;;;5019350;28;211845;-69
2022/12/18 12:15:04;;;;;;;;;;;-0.90;99.90;;;;;;5073484;28;20011;-70
2022/12/18 12:17:37;;;;;;;;;;;-0.90;99.90;;;;;;4994390;28;206799;-69
2022/12/18 12:20:11;;;;;;;;;;;-0.90;99.90;;;;;;5025594;28;207971;-69
2022/12/18 12:22:42;;;;;;;;;;;-0.80;99.90;;;;;;5054130;28;19928;-69
2022/12/18 12:25:19;;;;;;;;;;;-0.80;99.90;;;;;;5031615;28;208648;-70
2022/12/18 12:27:51;;;;;;;;;;;-0.80;99.90;;;;;;5050450;28;20573;-70
2022/12/18 12:30:20;;;;;;;;;;;-0.90;99.90;;;;;;5015129;28;204233;-70
2022/12/18 12:32:56;;;;;;;;;;;-0.80;99.90;;;;;;5057620;28;19991;-70
2022/12/18 12:35:40;;;;;;;;;;;-0.80;99.90;;;;;;5040571;28;186884;-70
2022/12/18 12:38:15;;;;;;;;;;;-0.80;99.90;;;;;;5075213;28;19931;-69
2022/12/18 12:40:46;;;;;;;;;;;-0.80;99.90;;;;;;5028691;27;207424;-69
2022/12/18 12:43:21;;;;;;;;;;;-0.80;99.90;;;;;;5065793;28;19935;-69
2022/12/18 12:45:49;;;;;;;;;;;-0.70;99.90;;;;;;5011446;28;185755;-70
2022/12/18 12:48:23;;;;;;;;;;;-0.70;99.90;;;;;;5051662;28;20033;-70
2022/12/18 12:50:49;;;;;;;;;;;-0.60;99.90;;;;;;5012920;28;140955;-70
2022/12/18 12:53:22;;;;;;;;;;;-0.60;99.90;;;;;;5057570;28;20573;-69
2022/12/18 12:55:48;;;;;;;;;;;-0.60;99.90;;;;;;4994509;28;150786;-70
2022/12/18 12:58:18;;;;;;;;;;;-0.50;99.90;;;;;;5049170;28;19928;-70
2022/12/18 13:00:49;;;;;;;;;;;-0.60;99.90;;;;;;5029170;28;206197;-70
2022/12/18 13:03:32;;;;;;;;;;;-0.50;99.90;;;;;;5032921;28;22056;-70
2022/12/18 13:06:00;;;;;;;;;;;-0.50;99.90;;;;;;5030149;28;200515;-70
2022/12/18 13:08:27;;;;;;;;;;;-0.50;99.90;;;;;;5063530;28;19925;-70
2022/12/18 13:12:55;;;;;;;;;;;-0.50;99.90;;;;;;5004054;28;209379;-70
2022/12/18 13:13:52;;;;;;;;;;;-0.50;99.90;;;;;;5050784;28;19927;-70
2022/12/18 13:16:18;;;;;;;;;;;-0.50;99.90;;;;;;5009615;28;204645;-70
2022/12/18 13:18:56;;;;;;;;;;;-0.50;99.90;;;;;;5053837;28;19929;-69
2022/12/18 13:21:27;;;;;;;;;;;-0.40;99.90;;;;;;5024419;28;128212;-70
2022/12/18 13:23:53;;;;;;;;;;;-0.40;99.90;;;;;;5061334;28;19924;-71
2022/12/18 13:26:19;;;;;;;;;;;-0.40;99.90;;;;;;5005664;28;137295;-71
2022/12/18 13:28:48;;;;;;;;;;;-0.40;99.90;;;;;;5058922;28;19928;-70
2022/12/18 13:31:14;;;;;;;;;;;-0.40;99.90;;;;;;5009128;28;208868;-70
2022/12/18 13:33:42;;;;;;;;;;;-0.40;99.90;;;;;;5070317;28;19932;-69
2022/12/18 13:36:08;;;;;;;;;;;-0.40;99.90;;;;;;5028556;28;162148;-70
2022/12/18 13:38:35;;;;;;;;;;;-0.40;99.90;;;;;;5045072;28;19956;-70
2022/12/18 13:41:22;;;;;;;;;;;-0.40;99.90;;;;;;5030769;28;202444;-70
2022/12/18 13:43:49;;;;;;;;;;;-0.40;99.90;;;;;;5052144;28;19929;-70
2022/12/18 13:46:15;;;;;;;;;;;-0.40;99.90;;;;;;4998568;28;214157;-70
2022/12/18 13:48:48;;;;;;;;;;;-0.40;99.90;;;;;;5051031;28;20079;-70
2022/12/18 13:51:16;;;;;;;;;;;-0.30;99.90;;;;;;5021737;28;220918;-70
2022/12/18 13:53:44;;;;;;;;;;;-0.30;99.90;;;;;;5051764;28;19931;-70
2022/12/18 13:56:15;;;;;;;;;;;-0.30;99.90;;;;;;4999502;28;216997;-70
2022/12/18 13:58:41;;;;;;;;;;;-0.30;99.90;;;;;;5044005;28;20327;-70
2022/12/18 14:01:21;;;;;;;;;;;-0.30;99.90;;;;;;5002022;28;170772;-71
2022/12/18 14:03:47;;;;;;;;;;;-0.30;99.90;;;;;;5041147;28;20297;-70
2022/12/18 14:06:13;;;;;;;;;;;-0.30;99.90;;;;;;5014499;28;176510;-70
2022/12/18 14:08:40;;;;;;;;;;;-0.30;99.90;;;;;;5069517;28;19928;-69
2022/12/18 14:11:07;;;;;;;;;;;-0.30;99.90;;;;;;5012236;28;208489;-70
2022/12/18 14:13:38;;;;;;;;;;;-0.30;99.90;;;;;;5069213;28;19944;-70
2022/12/18 14:16:07;;;;;;;;;;;-0.30;99.90;;;;;;5023002;28;215944;-68
2022/12/18 14:18:32;;;;;;;;;;;-0.30;99.90;;;;;;5058696;28;19924;-69
2022/12/18 14:21:00;;;;;;;;;;;-0.40;99.90;;;;;;5037386;27;207599;-69
2022/12/18 14:23:36;;;;;;;;;;;-0.40;99.90;;;;;;5043792;28;19958;-70
2022/12/18 14:26:18;;;;;;;;;;;-0.40;99.90;;;;;;5029643;28;195803;-70
2022/12/18 14:28:44;;;;;;;;;;;-0.40;99.90;;;;;;5048031;28;19931;-70
2022/12/18 14:31:17;;;;;;;;;;;-0.50;99.90;;;;;;5018142;28;144878;-71